createdAt,value
2017-11-09T00:00:21.383Z,78.10
2017-11-09T00:02:55.204Z,78.10
2017-11-09T00:05:47.528Z,78.40
2017-11-09T00:08:24.019Z,78.40
2017-11-09T00:10:57.584Z,78.30
2017-11-09T00:13:31.182Z,78.30
2017-11-09T00:16:05.333Z,78.30
2017-11-09T00:18:39.219Z,78.50
2017-11-09T00:21:13.740Z,78.60
2017-11-09T00:23:47.532Z,78.50
2017-11-09T00:26:22.339Z,78.60
2017-11-09T00:28:56.079Z,78.60
2017-11-09T00:31:29.875Z,78.80
2017-11-09T00:34:03.689Z,78.80
2017-11-09T00:36:37.786Z,79.10
2017-11-09T00:39:12.328Z,79.30
2017-11-09T00:41:46.157Z,79.30
2017-11-09T00:44:20.738Z,79.30
2017-11-09T00:46:54.483Z,79.30
2017-11-09T00:49:28.171Z,79.30
2017-11-09T00:52:01.891Z,79.40
2017-11-09T00:54:35.595Z,79.30
2017-11-09T00:57:09.747Z,79.30
2017-11-09T00:59:43.344Z,79.30
2017-11-09T01:02:17.126Z,79.30
2017-11-09T01:04:50.817Z,79.40
2017-11-09T01:07:24.671Z,79.20
2017-11-09T01:09:58.637Z,79.10
2017-11-09T01:12:32.387Z,79.00
2017-11-09T01:15:06.156Z,79.00
2017-11-09T01:17:39.987Z,78.70
2017-11-09T01:20:14.591Z,78.60
2017-11-09T01:22:49.402Z,78.60
2017-11-09T01:25:23.112Z,78.60
2017-11-09T01:27:57.598Z,78.90
2017-11-09T01:30:31.293Z,78.80
2017-11-09T01:33:05.649Z,79.00
2017-11-09T01:35:39.454Z,78.90
2017-11-09T01:38:13.278Z,79.00
2017-11-09T01:40:47.044Z,79.10
2017-11-09T01:43:20.789Z,79.40
2017-11-09T01:45:54.666Z,79.50
2017-11-09T01:48:29.089Z,79.60
2017-11-09T01:51:03.247Z,79.50
2017-11-09T01:53:37.347Z,79.90
2017-11-09T01:56:11.087Z,79.80
2017-11-09T01:58:45.738Z,79.90
2017-11-09T02:01:20.122Z,80.10
2017-11-09T02:03:53.901Z,80.10
2017-11-09T02:06:27.730Z,80.20
2017-11-09T02:09:02.349Z,80.10
2017-11-09T02:11:35.961Z,80.40
2017-11-09T02:14:09.788Z,80.40
2017-11-09T02:16:43.890Z,80.30
2017-11-09T02:19:18.458Z,81.00
2017-11-09T02:21:52.183Z,81.00
2017-11-09T02:24:25.763Z,81.10
2017-11-09T02:26:59.575Z,81.30
2017-11-09T02:29:33.178Z,81.20
2017-11-09T02:32:06.952Z,81.20
2017-11-09T02:34:40.800Z,81.00
2017-11-09T02:37:14.727Z,80.80
2017-11-09T02:39:48.575Z,80.80
2017-11-09T02:42:22.182Z,80.80
2017-11-09T02:44:55.965Z,81.00
2017-11-09T02:47:29.827Z,80.80
2017-11-09T02:50:03.598Z,80.50
2017-11-09T02:52:37.227Z,80.50
2017-11-09T02:55:11.040Z,80.60
2017-11-09T02:57:44.905Z,81.40
2017-11-09T03:00:19.443Z,80.80
2017-11-09T03:02:53.490Z,80.80
2017-11-09T03:05:27.835Z,80.60
2017-11-09T03:08:01.670Z,80.60
2017-11-09T03:10:36.248Z,80.60
2017-11-09T03:13:10.910Z,80.40
2017-11-09T03:15:45.388Z,80.50
2017-11-09T03:18:19.930Z,80.50
2017-11-09T03:20:55.461Z,80.30
2017-11-09T03:23:29.553Z,80.30
2017-11-09T03:26:03.359Z,80.10
2017-11-09T03:28:38.411Z,80.30
2017-11-09T03:31:14.607Z,80.60
2017-11-09T03:33:49.238Z,80.50
2017-11-09T03:36:23.925Z,80.40
2017-11-09T03:38:57.682Z,80.30
2017-11-09T03:41:31.484Z,80.30
2017-11-09T03:44:05.226Z,79.50
2017-11-09T03:46:39.306Z,79.80
2017-11-09T03:49:12.939Z,79.80
2017-11-09T03:51:46.762Z,79.50
2017-11-09T03:54:20.663Z,79.20
2017-11-09T03:56:56.164Z,79.30
2017-11-09T03:59:30.810Z,79.20
2017-11-09T04:02:04.752Z,79.10
2017-11-09T04:04:38.822Z,79.00
2017-11-09T04:07:12.558Z,79.20
2017-11-09T04:09:46.302Z,79.20
2017-11-09T04:12:20.535Z,79.00
2017-11-09T04:14:54.150Z,78.60
2017-11-09T04:17:28.586Z,79.10
2017-11-09T04:20:02.459Z,79.10
2017-11-09T04:22:37.884Z,79.40
2017-11-09T04:25:11.689Z,79.90
2017-11-09T04:27:46.277Z,79.90
2017-11-09T04:30:20.065Z,80.10
2017-11-09T04:32:55.972Z,80.20
2017-11-09T04:35:31.424Z,80.20
2017-11-09T04:38:05.255Z,80.20
2017-11-09T04:40:38.867Z,80.30
2017-11-09T04:43:12.634Z,80.40
2017-11-09T04:45:46.440Z,80.50
2017-11-09T04:48:20.968Z,80.50
2017-11-09T04:53:32.976Z,80.10
2017-11-09T04:56:06.949Z,80.20
2017-11-09T04:58:41.167Z,79.90
2017-11-09T05:01:15.070Z,80.00
2017-11-09T05:03:49.315Z,80.20
2017-11-09T05:06:24.122Z,80.10
2017-11-09T05:08:59.558Z,80.00
2017-11-09T05:11:33.201Z,80.00
2017-11-09T05:14:06.806Z,80.30
2017-11-09T05:16:40.513Z,80.50
2017-11-09T05:19:15.056Z,80.60
2017-11-09T05:21:50.455Z,80.70
2017-11-09T05:24:24.983Z,80.60
2017-11-09T05:26:58.840Z,80.70
2017-11-09T05:29:33.867Z,80.50
2017-11-09T05:32:11.024Z,80.50
2017-11-09T05:34:46.762Z,80.30
2017-11-09T05:37:21.167Z,80.30
2017-11-09T05:39:55.520Z,80.60
2017-11-09T05:42:29.651Z,80.60
2017-11-09T05:45:03.300Z,80.60
2017-11-09T05:47:37.881Z,80.50
2017-11-09T05:50:11.680Z,80.60
2017-11-09T05:52:45.368Z,80.40
2017-11-09T05:55:20.116Z,80.40
2017-11-09T05:57:53.895Z,80.30
2017-11-09T06:00:27.628Z,80.40
2017-11-09T06:03:01.405Z,80.30
2017-11-09T06:05:36.134Z,80.20
2017-11-09T06:08:09.942Z,80.30
2017-11-09T06:10:43.760Z,80.20
2017-11-09T06:13:17.491Z,80.10
2017-11-09T06:15:51.135Z,80.30
2017-11-09T06:18:24.863Z,80.30
2017-11-09T06:20:59.140Z,80.30
2017-11-09T06:23:32.882Z,80.30
2017-11-09T06:26:07.117Z,80.30
2017-11-09T06:28:41.614Z,80.30
2017-11-09T06:31:15.279Z,80.30
2017-11-09T06:33:49.606Z,80.20
2017-11-09T06:36:23.242Z,80.40
2017-11-09T06:38:56.956Z,80.40
2017-11-09T06:41:31.132Z,80.50
2017-11-09T06:44:07.351Z,80.30
2017-11-09T06:46:41.083Z,80.50
2017-11-09T06:49:15.770Z,80.50
2017-11-09T06:51:49.756Z,80.70
2017-11-09T06:54:24.935Z,80.70
2017-11-09T06:56:59.030Z,80.60
2017-11-09T06:59:32.714Z,80.60
2017-11-09T07:02:06.601Z,80.70
2017-11-09T07:04:41.751Z,81.00
2017-11-09T07:07:15.597Z,80.80
2017-11-09T07:09:55.855Z,80.80
2017-11-09T07:12:30.575Z,80.80
2017-11-09T07:15:04.121Z,80.90
2017-11-09T07:17:40.338Z,81.20
2017-11-09T07:20:14.896Z,81.50
2017-11-09T07:22:49.585Z,81.40
2017-11-09T07:25:23.856Z,81.40
2017-11-09T07:27:57.810Z,81.60
2017-11-09T07:30:32.706Z,81.20
2017-11-09T07:33:06.448Z,81.30
2017-11-09T07:38:21.865Z,81.00
2017-11-09T07:41:00.193Z,80.80
2017-11-09T07:43:36.431Z,80.50
2017-11-09T07:46:12.247Z,80.50
2017-11-09T07:48:46.560Z,80.50
2017-11-09T07:54:00.983Z,80.10
2017-11-09T07:56:35.981Z,79.10
2017-11-09T07:59:10.247Z,79.10
2017-11-09T08:01:43.975Z,78.80
2017-11-09T08:04:18.313Z,79.00
2017-11-09T08:06:52.907Z,78.70
2017-11-09T08:09:27.093Z,78.40
2017-11-09T08:12:02.625Z,77.60
2017-11-09T08:14:38.080Z,77.60
2017-11-09T08:17:12.400Z,77.70
2017-11-09T08:19:48.260Z,78.00
2017-11-09T08:22:25.098Z,77.60
2017-11-09T08:25:07.717Z,77.50
2017-11-09T08:27:46.815Z,77.50
2017-11-09T08:33:12.995Z,77.10
2017-11-09T08:35:48.265Z,77.00
2017-11-09T08:38:24.754Z,76.60
2017-11-09T08:40:59.494Z,76.40
2017-11-09T08:43:36.950Z,75.50
2017-11-09T08:46:13.871Z,75.50
2017-11-09T08:48:47.689Z,75.50
2017-11-09T08:51:21.628Z,75.00
2017-11-09T08:53:56.704Z,74.60
2017-11-09T08:56:31.246Z,74.10
2017-11-09T08:59:05.039Z,73.80
2017-11-09T09:01:42.267Z,73.40
2017-11-09T09:04:16.764Z,73.20
2017-11-09T09:06:51.314Z,73.10
2017-11-09T09:09:25.503Z,73.10
2017-11-09T09:12:00.841Z,73.00
2017-11-09T09:14:38.968Z,73.00
2017-11-09T09:17:17.490Z,72.70
2017-11-09T09:19:52.781Z,72.20
2017-11-09T09:25:43.299Z,71.60
2017-11-09T09:28:27.688Z,71.20
2017-11-09T09:31:11.234Z,71.10
2017-11-09T09:33:52.728Z,69.90
2017-11-09T09:36:29.926Z,69.80
2017-11-09T09:39:05.204Z,70.00
2017-11-09T09:41:39.653Z,69.10
2017-11-09T09:44:13.586Z,69.00
2017-11-09T09:46:47.745Z,68.30
2017-11-09T09:49:21.887Z,67.90
2017-11-09T09:51:55.595Z,67.20
2017-11-09T09:54:29.995Z,67.70
2017-11-09T09:57:04.411Z,67.70
2017-11-09T09:59:39.134Z,67.80
2017-11-09T10:02:12.866Z,68.00
2017-11-09T10:04:47.319Z,67.90
2017-11-09T10:07:21.192Z,68.00
2017-11-09T10:09:54.868Z,66.90
2017-11-09T10:12:28.774Z,67.10
2017-11-09T10:15:03.247Z,67.30
2017-11-09T10:17:37.487Z,67.30
2017-11-09T10:20:15.232Z,65.60
2017-11-09T10:22:49.019Z,65.60
2017-11-09T10:25:26.369Z,66.00
2017-11-09T10:28:01.309Z,66.10
2017-11-09T10:30:35.249Z,66.10
2017-11-09T10:33:10.058Z,65.50
2017-11-09T10:35:43.766Z,65.30
2017-11-09T10:38:19.858Z,65.40
2017-11-09T10:40:54.861Z,65.50
2017-11-09T10:43:32.104Z,65.20
2017-11-09T10:46:05.856Z,66.10
2017-11-09T10:48:40.456Z,66.00
2017-11-09T10:51:14.402Z,65.90
2017-11-09T10:53:48.453Z,67.20
2017-11-09T10:56:22.493Z,67.70
2017-11-09T10:58:56.272Z,68.40
2017-11-09T11:01:30.420Z,69.00
2017-11-09T11:06:43.818Z,68.90
2017-11-09T11:09:18.983Z,68.80
2017-11-09T11:11:53.689Z,69.50
2017-11-09T11:14:32.226Z,69.60
2017-11-09T11:17:07.860Z,68.70
2017-11-09T11:19:42.217Z,68.80
2017-11-09T11:22:17.156Z,69.20
2017-11-09T11:24:54.878Z,69.80
2017-11-09T11:27:28.920Z,70.10
2017-11-09T11:30:08.271Z,69.90
2017-11-09T11:32:43.409Z,70.50
2017-11-09T11:35:19.350Z,70.20
2017-11-09T11:37:55.085Z,69.30
2017-11-09T11:40:35.096Z,69.00
2017-11-09T11:46:20.062Z,68.00
2017-11-09T11:48:58.434Z,68.20
2017-11-09T11:51:36.364Z,68.20
2017-11-09T11:54:14.583Z,68.00
2017-11-09T11:56:51.163Z,68.90
2017-11-09T11:59:27.819Z,68.80
2017-11-09T12:04:55.345Z,69.20
2017-11-09T12:10:37.612Z,68.70
2017-11-09T12:16:28.240Z,67.30
2017-11-09T12:19:04.334Z,66.00
2017-11-09T12:31:04.333Z,65.60
2017-11-09T12:33:41.997Z,68.20
2017-11-09T12:36:19.804Z,67.90
2017-11-09T12:41:58.838Z,68.20
2017-11-09T12:44:33.423Z,68.20
2017-11-09T12:47:09.601Z,68.10
2017-11-09T12:49:51.119Z,68.70
2017-11-09T12:52:27.184Z,68.90
2017-11-09T12:58:07.876Z,68.50
2017-11-09T13:00:46.603Z,68.30
2017-11-09T13:03:20.640Z,67.90
2017-11-09T13:05:56.700Z,67.90
2017-11-09T13:11:46.642Z,68.20
2017-11-09T13:14:21.785Z,68.40
2017-11-09T13:16:58.044Z,68.50
2017-11-09T13:22:38.143Z,68.00
2017-11-09T13:31:18.024Z,67.90
2017-11-09T13:33:54.670Z,66.20
2017-11-09T13:36:30.527Z,66.40
2017-11-09T13:39:05.566Z,66.80
2017-11-09T13:41:41.762Z,67.10
2017-11-09T13:44:18.511Z,67.90
2017-11-09T13:49:34.746Z,67.80
2017-11-09T13:52:09.393Z,67.70
2017-11-09T13:54:44.916Z,67.60
2017-11-09T13:57:21.390Z,67.60
2017-11-09T13:59:56.393Z,67.50
2017-11-09T14:02:38.758Z,67.60
2017-11-09T14:05:16.483Z,67.60
2017-11-09T14:07:51.130Z,67.60
2017-11-09T14:10:30.633Z,67.70
2017-11-09T14:13:11.446Z,66.80
2017-11-09T14:15:50.860Z,67.00
2017-11-09T14:18:24.766Z,66.90
2017-11-09T14:24:04.977Z,66.80
2017-11-09T14:26:43.328Z,66.90
2017-11-09T14:35:06.544Z,67.10
2017-11-09T14:37:47.093Z,67.60
2017-11-09T14:40:26.274Z,67.60
2017-11-09T14:43:07.525Z,67.60
2017-11-09T14:45:43.651Z,67.60
2017-11-09T14:48:19.953Z,67.60
2017-11-09T14:50:56.851Z,67.50
2017-11-09T14:53:32.004Z,67.40
2017-11-09T14:56:05.965Z,67.30
2017-11-09T14:58:50.321Z,67.30
2017-11-09T15:01:27.504Z,68.00
2017-11-09T15:04:02.332Z,67.30
2017-11-09T15:06:42.226Z,67.10
2017-11-09T15:09:19.347Z,67.10
2017-11-09T15:11:53.064Z,66.40
2017-11-09T15:14:30.784Z,67.10
2017-11-09T15:17:07.207Z,66.20
2017-11-09T15:19:42.067Z,66.00
2017-11-09T15:22:16.411Z,66.00
2017-11-09T15:24:50.327Z,65.80
2017-11-09T15:27:26.041Z,65.90
2017-11-09T15:30:01.593Z,66.00
2017-11-09T15:32:35.174Z,66.20
2017-11-09T15:35:11.418Z,66.10
2017-11-09T15:37:45.340Z,66.70
2017-11-09T15:40:26.078Z,66.80
2017-11-09T15:43:09.644Z,66.80
2017-11-09T15:45:45.541Z,66.70
2017-11-09T15:53:41.376Z,68.00
2017-11-09T16:02:05.914Z,69.20
2017-11-09T16:04:40.575Z,69.90
2017-11-09T16:07:18.896Z,70.30
2017-11-09T16:09:58.065Z,70.50
2017-11-09T16:12:33.404Z,70.70
2017-11-09T16:17:54.098Z,71.60
2017-11-09T16:20:29.077Z,71.90
2017-11-09T16:23:08.023Z,72.20
2017-11-09T16:25:45.936Z,72.40
2017-11-09T16:28:21.577Z,72.60
2017-11-09T16:30:56.230Z,73.00
2017-11-09T16:33:32.134Z,73.30
2017-11-09T16:36:09.206Z,73.50
2017-11-09T16:38:44.764Z,74.30
2017-11-09T16:41:22.117Z,74.30
2017-11-09T16:43:58.729Z,74.30
2017-11-09T16:46:35.442Z,74.30
2017-11-09T16:49:09.186Z,74.30
2017-11-09T16:51:45.371Z,74.30
2017-11-09T16:54:20.291Z,74.30
2017-11-09T16:56:54.650Z,74.30
2017-11-09T16:59:31.167Z,74.20
2017-11-09T17:05:07.711Z,74.80
2017-11-09T17:07:42.833Z,75.00
2017-11-09T17:10:17.589Z,75.10
2017-11-09T17:12:51.551Z,75.00
2017-11-09T17:15:25.298Z,75.00
2017-11-09T17:18:13.922Z,75.00
2017-11-09T17:20:47.483Z,75.10
2017-11-09T17:23:23.482Z,75.00
2017-11-09T17:25:57.284Z,75.00
2017-11-09T17:28:32.134Z,75.30
2017-11-09T17:31:05.872Z,75.10
2017-11-09T17:33:39.662Z,75.00
2017-11-09T17:36:14.190Z,74.70
2017-11-09T17:38:48.027Z,74.80
2017-11-09T17:41:25.061Z,74.70
2017-11-09T17:44:00.349Z,74.20
2017-11-09T17:46:39.340Z,74.20
2017-11-09T17:49:15.038Z,74.20
2017-11-09T17:51:48.950Z,74.30
2017-11-09T17:54:25.171Z,73.60
2017-11-09T17:57:00.848Z,73.30
2017-11-09T17:59:36.797Z,73.20
2017-11-09T18:02:14.412Z,72.70
2017-11-09T18:04:49.298Z,72.50
2017-11-09T18:07:24.705Z,72.10
2017-11-09T18:09:58.959Z,72.10
2017-11-09T18:12:33.275Z,71.80
2017-11-09T18:15:09.006Z,71.70
2017-11-09T18:17:43.606Z,71.80
2017-11-09T18:20:17.327Z,71.80
2017-11-09T18:23:02.886Z,71.80
2017-11-09T18:25:42.184Z,72.10
2017-11-09T18:28:18.620Z,72.50
2017-11-09T18:30:52.787Z,72.80
2017-11-09T18:33:28.240Z,73.00
2017-11-09T18:36:03.958Z,73.40
2017-11-09T18:38:42.978Z,73.90
2017-11-09T18:41:16.883Z,73.70
2017-11-09T18:43:52.063Z,74.40
2017-11-09T18:46:28.944Z,74.30
2017-11-09T18:49:03.902Z,74.40
2017-11-09T18:51:39.404Z,74.30
2017-11-09T18:54:15.224Z,74.30
2017-11-09T18:56:50.284Z,74.30
2017-11-09T18:59:23.861Z,74.30
2017-11-09T19:01:58.433Z,74.30
2017-11-09T19:04:32.431Z,74.30
2017-11-09T19:07:07.671Z,74.30
2017-11-09T19:09:42.332Z,74.30
2017-11-09T19:12:16.389Z,74.40
2017-11-09T19:14:51.086Z,74.40
2017-11-09T19:17:25.876Z,74.50
2017-11-09T19:22:42.129Z,74.00
2017-11-09T19:25:16.787Z,73.90
2017-11-09T19:27:52.020Z,73.70
2017-11-09T19:30:27.621Z,73.60
2017-11-09T19:33:04.202Z,73.40
2017-11-09T19:35:39.525Z,73.30
2017-11-09T19:38:13.393Z,73.30
2017-11-09T19:40:48.369Z,73.10
2017-11-09T19:43:26.862Z,73.00
2017-11-09T19:46:01.715Z,72.80
2017-11-09T19:48:36.407Z,72.80
2017-11-09T19:51:10.484Z,72.70
2017-11-09T19:53:44.966Z,72.50
2017-11-09T19:56:18.972Z,72.40
2017-11-09T19:58:52.870Z,72.30
2017-11-09T20:01:30.922Z,72.40
2017-11-09T20:04:09.530Z,72.10
2017-11-09T20:06:43.923Z,72.10
2017-11-09T20:09:18.738Z,72.20
2017-11-09T20:11:54.603Z,71.90
2017-11-09T20:14:29.203Z,71.80
2017-11-09T20:17:03.662Z,71.60
2017-11-09T20:19:37.665Z,71.60
2017-11-09T20:22:13.553Z,71.70
2017-11-09T20:24:47.312Z,71.50
2017-11-09T20:27:21.121Z,71.30
2017-11-09T20:32:33.794Z,71.00
2017-11-09T20:35:18.260Z,71.00
2017-11-09T20:40:38.952Z,70.40
2017-11-09T20:43:15.083Z,70.40
2017-11-09T20:45:49.410Z,70.30
2017-11-09T20:48:23.159Z,70.20
2017-11-09T20:53:36.820Z,70.20
2017-11-09T20:58:51.038Z,70.50
2017-11-09T21:04:03.015Z,70.30
2017-11-09T21:11:56.919Z,70.30
2017-11-09T21:19:51.887Z,71.40
2017-11-09T21:22:29.529Z,71.90
2017-11-09T21:27:50.976Z,73.10
2017-11-09T21:30:30.000Z,73.80
2017-11-09T21:33:07.645Z,73.90
2017-11-09T21:35:42.331Z,74.10
2017-11-09T21:40:58.940Z,74.90
2017-11-09T21:57:30.616Z,80.10
2017-11-09T22:00:05.366Z,80.50
2017-11-09T22:02:40.468Z,82.40
2017-11-09T22:05:17.983Z,83.30
2017-11-09T22:07:51.718Z,83.60
2017-11-09T22:10:26.570Z,83.20
2017-11-09T22:13:01.153Z,83.20
2017-11-09T22:15:39.037Z,83.20
2017-11-09T22:18:15.020Z,83.40
2017-11-09T22:20:52.279Z,83.40
2017-11-09T22:23:27.766Z,84.50
2017-11-09T22:26:07.208Z,84.50
2017-11-09T22:28:46.734Z,85.80
2017-11-09T22:36:45.153Z,85.00
2017-11-09T22:39:22.687Z,85.00
2017-11-09T22:41:56.897Z,84.90
2017-11-09T22:44:31.465Z,85.50
2017-11-09T22:47:14.201Z,85.70
2017-11-09T22:49:49.037Z,85.70
2017-11-09T22:52:26.168Z,85.50
2017-11-09T22:55:01.630Z,86.00
2017-11-09T22:57:35.568Z,86.70
2017-11-09T23:00:10.708Z,86.10
2017-11-09T23:02:46.816Z,86.70
2017-11-09T23:05:20.559Z,86.50
2017-11-09T23:07:56.409Z,86.70
2017-11-09T23:10:30.171Z,86.40
2017-11-09T23:13:05.156Z,86.40
2017-11-09T23:15:38.861Z,86.30
2017-11-09T23:18:12.724Z,86.60
2017-11-09T23:20:47.140Z,86.70
2017-11-09T23:23:22.000Z,86.40
2017-11-09T23:28:33.438Z,86.10
2017-11-09T23:36:24.758Z,85.90
2017-11-09T23:38:59.862Z,85.40
2017-11-09T23:41:34.438Z,84.50
2017-11-09T23:44:08.171Z,84.70
2017-11-09T23:46:42.951Z,85.00
2017-11-09T23:49:16.848Z,85.10
2017-11-09T23:51:50.887Z,86.60
2017-11-09T23:54:25.447Z,85.80
2017-11-09T23:56:59.525Z,85.80
2017-11-09T23:59:33.921Z,85.60
